sensor_id;sensor_type;location;lat;lon;timestamp;pressure;altitude;pressure_sealevel;temperature;humidity
72548;BME280;60570;50.848;6.776;2022-10-28T00:00:20;100862.19;;;17.78;71.68
72548;BME280;60570;50.848;6.776;2022-10-28T00:01:22;100858.56;;;17.78;71.77
72548;BME280;60570;50.848;6.776;2022-10-28T00:02:23;100861.38;;;17.78;71.76
72548;BME280;60570;50.848;6.776;2022-10-28T00:03:23;100860.56;;;17.77;71.80
72548;BME280;60570;50.848;6.776;2022-10-28T00:04:23;100867.44;;;17.80;71.80
72548;BME280;60570;50.848;6.776;2022-10-28T00:05:24;100864.63;;;17.80;71.58
72548;BME280;60570;50.848;6.776;2022-10-28T00:06:27;100862.19;;;17.78;71.59
72548;BME280;60570;50.848;6.776;2022-10-28T00:07:28;100862.19;;;17.78;71.74
72548;BME280;60570;50.848;6.776;2022-10-28T00:08:28;100862.63;;;17.80;71.58
72548;BME280;60570;50.848;6.776;2022-10-28T00:09:29;100857.38;;;17.79;71.56
72548;BME280;60570;50.848;6.776;2022-10-28T00:10:30;100857.38;;;17.79;71.51
72548;BME280;60570;50.848;6.776;2022-10-28T00:11:32;100861.81;;;17.80;71.65
72548;BME280;60570;50.848;6.776;2022-10-28T00:12:36;100852.50;;;17.76;71.94
72548;BME280;60570;50.848;6.776;2022-10-28T00:13:40;100850.94;;;17.78;71.59
72548;BME280;60570;50.848;6.776;2022-10-28T00:14:42;100848.97;;;17.79;71.67
72548;BME280;60570;50.848;6.776;2022-10-28T00:15:42;100847.31;;;17.78;71.40
72548;BME280;60570;50.848;6.776;2022-10-28T00:16:43;100857.38;;;17.79;71.54
72548;BME280;60570;50.848;6.776;2022-10-28T00:17:43;100860.19;;;17.79;71.43
72548;BME280;60570;50.848;6.776;2022-10-28T00:18:44;100856.94;;;17.77;71.51
72548;BME280;60570;50.848;6.776;2022-10-28T00:19:45;100846.53;;;17.77;71.86
72548;BME280;60570;50.848;6.776;2022-10-28T00:20:45;100844.50;;;17.78;71.31
72548;BME280;60570;50.848;6.776;2022-10-28T00:21:46;100844.50;;;17.78;71.31
72548;BME280;60570;50.848;6.776;2022-10-28T00:22:46;100847.75;;;17.80;71.42
72548;BME280;60570;50.848;6.776;2022-10-28T00:23:47;100842.13;;;17.80;71.64
72548;BME280;60570;50.848;6.776;2022-10-28T00:24:47;100841.34;;;17.79;71.86
72548;BME280;60570;50.848;6.776;2022-10-28T00:25:47;100831.28;;;17.78;71.55
72548;BME280;60570;50.848;6.776;2022-10-28T00:26:48;100845.31;;;17.78;71.58
72548;BME280;60570;50.848;6.776;2022-10-28T00:27:48;100836.91;;;17.78;71.89
72548;BME280;60570;50.848;6.776;2022-10-28T00:28:54;100839.69;;;17.78;71.73
72548;BME280;60570;50.848;6.776;2022-10-28T00:29:55;100838.88;;;17.78;71.72
72548;BME280;60570;50.848;6.776;2022-10-28T00:31:02;100847.75;;;17.80;71.49
72548;BME280;60570;50.848;6.776;2022-10-28T00:32:02;100844.94;;;17.80;71.76
72548;BME280;60570;50.848;6.776;2022-10-28T00:33:02;100842.94;;;17.80;71.77
72548;BME280;60570;50.848;6.776;2022-10-28T00:34:05;100842.94;;;17.80;71.78
72548;BME280;60570;50.848;6.776;2022-10-28T00:35:06;100840.13;;;17.80;71.81
72548;BME280;60570;50.848;6.776;2022-10-28T00:36:18;100840.13;;;17.80;71.25
72548;BME280;60570;50.848;6.776;2022-10-28T00:37:18;100840.97;;;17.81;71.52
72548;BME280;60570;50.848;6.776;2022-10-28T00:38:19;100842.94;;;17.80;71.71
72548;BME280;60570;50.848;6.776;2022-10-28T00:39:22;100846.59;;;17.81;71.25
72548;BME280;60570;50.848;6.776;2022-10-28T00:40:23;100839.31;;;17.80;71.43
72548;BME280;60570;50.848;6.776;2022-10-28T00:41:32;100841.69;;;17.78;71.38
72548;BME280;60570;50.848;6.776;2022-10-28T00:42:33;100842.13;;;17.80;71.26
72548;BME280;60570;50.848;6.776;2022-10-28T00:43:42;100848.97;;;17.79;71.54
72548;BME280;60570;50.848;6.776;2022-10-28T00:44:56;100857.00;;;17.80;71.44
72548;BME280;60570;50.848;6.776;2022-10-28T00:45:57;100859.00;;;17.80;71.58
72548;BME280;60570;50.848;6.776;2022-10-28T00:46:57;100857.38;;;17.79;71.30
72548;BME280;60570;50.848;6.776;2022-10-28T00:48:01;100861.81;;;17.80;71.58
72548;BME280;60570;50.848;6.776;2022-10-28T00:49:08;100859.00;;;17.80;71.29
72548;BME280;60570;50.848;6.776;2022-10-28T00:50:45;100860.56;;;17.77;71.41
72548;BME280;60570;50.848;6.776;2022-10-28T00:51:49;100861.81;;;17.80;71.27
72548;BME280;60570;50.848;6.776;2022-10-28T00:52:55;100858.66;;;17.81;71.58
72548;BME280;60570;50.848;6.776;2022-10-28T00:53:57;100857.44;;;17.82;71.35
72548;BME280;60570;50.848;6.776;2022-10-28T00:55:00;100851.00;;;17.82;71.04
72548;BME280;60570;50.848;6.776;2022-10-28T00:56:02;100849.38;;;17.81;71.36
72548;BME280;60570;50.848;6.776;2022-10-28T00:57:05;100851.81;;;17.82;71.72
72548;BME280;60570;50.848;6.776;2022-10-28T00:58:09;100863.88;;;17.83;71.25
72548;BME280;60570;50.848;6.776;2022-10-28T00:59:18;100855.44;;;17.83;71.45
72548;BME280;60570;50.848;6.776;2022-10-28T01:00:19;100857.44;;;17.82;71.14
72548;BME280;60570;50.848;6.776;2022-10-28T01:01:19;100845.03;;;17.83;71.12
72548;BME280;60570;50.848;6.776;2022-10-28T01:02:20;100849.00;;;17.82;71.13
72548;BME280;60570;50.848;6.776;2022-10-28T01:03:21;100855.44;;;17.83;71.04
72548;BME280;60570;50.848;6.776;2022-10-28T01:04:21;100858.25;;;17.83;71.34
72548;BME280;60570;50.848;6.776;2022-10-28T01:05:26;100858.25;;;17.83;71.41
72548;BME280;60570;50.848;6.776;2022-10-28T01:06:27;100846.19;;;17.82;71.25
72548;BME280;60570;50.848;6.776;2022-10-28T01:07:29;100841.41;;;17.83;71.26
72548;BME280;60570;50.848;6.776;2022-10-28T01:08:29;100839.41;;;17.83;71.15
72548;BME280;60570;50.848;6.776;2022-10-28T01:09:31;100845.38;;;17.82;71.45
72548;BME280;60570;50.848;6.776;2022-10-28T01:16:21;100824.53;;;17.83;71.40
72548;BME280;60570;50.848;6.776;2022-10-28T01:22:54;100835.34;;;17.81;70.97
72548;BME280;60570;50.848;6.776;2022-10-28T01:30:22;100835.34;;;17.81;71.36
72548;BME280;60570;50.848;6.776;2022-10-28T01:34:17;100826.91;;;17.81;71.28
72548;BME280;60570;50.848;6.776;2022-10-28T01:35:24;100827.72;;;17.81;71.36
72548;BME280;60570;50.848;6.776;2022-10-28T01:36:53;100825.69;;;17.82;71.04
72548;BME280;60570;50.848;6.776;2022-10-28T01:39:16;100822.91;;;17.82;71.21
72548;BME280;60570;50.848;6.776;2022-10-28T01:39:57;100822.47;;;17.80;70.94
72548;BME280;60570;50.848;6.776;2022-10-28T01:42:33;100826.09;;;17.80;71.37
72548;BME280;60570;50.848;6.776;2022-10-28T01:44:06;100822.09;;;17.81;71.16
72548;BME280;60570;50.848;6.776;2022-10-28T01:45:16;100824.91;;;17.81;71.11
72548;BME280;60570;50.848;6.776;2022-10-28T01:48:50;100829.34;;;17.82;71.17
72548;BME280;60570;50.848;6.776;2022-10-28T01:49:58;100832.16;;;17.82;71.15
72548;BME280;60570;50.848;6.776;2022-10-28T01:51:06;100828.50;;;17.82;71.60
72548;BME280;60570;50.848;6.776;2022-10-28T01:52:11;100827.72;;;17.81;71.46
72548;BME280;60570;50.848;6.776;2022-10-28T01:53:17;100825.69;;;17.82;71.00
72548;BME280;60570;50.848;6.776;2022-10-28T01:54:21;100824.53;;;17.83;71.09
72548;BME280;60570;50.848;6.776;2022-10-28T01:55:33;100824.91;;;17.81;71.20
72548;BME280;60570;50.848;6.776;2022-10-28T01:56:38;100830.16;;;17.83;71.00
72548;BME280;60570;50.848;6.776;2022-10-28T01:57:41;100823.72;;;17.82;71.40
72548;BME280;60570;50.848;6.776;2022-10-28T01:58:43;100833.78;;;17.83;71.22
72548;BME280;60570;50.848;6.776;2022-10-28T01:59:46;100827.72;;;17.81;70.86
72548;BME280;60570;50.848;6.776;2022-10-28T02:00:48;100830.53;;;17.81;71.08
72548;BME280;60570;50.848;6.776;2022-10-28T02:01:49;100830.88;;;17.80;71.16
72548;BME280;60570;50.848;6.776;2022-10-28T02:02:51;100828.06;;;17.80;71.06
72548;BME280;60570;50.848;6.776;2022-10-28T02:03:54;100828.91;;;17.80;71.26
72548;BME280;60570;50.848;6.776;2022-10-28T02:05:51;100828.06;;;17.80;71.14
72548;BME280;60570;50.848;6.776;2022-10-28T02:06:28;100826.91;;;17.81;71.07
72548;BME280;60570;50.848;6.776;2022-10-28T02:07:30;100828.06;;;17.80;70.88
72548;BME280;60570;50.848;6.776;2022-10-28T02:10:02;100814.41;;;17.78;71.29
72548;BME280;60570;50.848;6.776;2022-10-28T02:11:37;100803.97;;;17.79;71.48
72548;BME280;60570;50.848;6.776;2022-10-28T02:12:43;100809.59;;;17.79;71.42
72548;BME280;60570;50.848;6.776;2022-10-28T02:14:10;100815.63;;;17.77;71.21
72548;BME280;60570;50.848;6.776;2022-10-28T02:16:50;100819.22;;;17.78;71.43
72548;BME280;60570;50.848;6.776;2022-10-28T02:21:32;100820.41;;;17.77;71.26
72548;BME280;60570;50.848;6.776;2022-10-28T02:22:43;100815.97;;;17.76;71.13
72548;BME280;60570;50.848;6.776;2022-10-28T02:25:16;100818.41;;;17.77;71.36
72548;BME280;60570;50.848;6.776;2022-10-28T02:26:26;100814.78;;;17.77;70.91
72548;BME280;60570;50.848;6.776;2022-10-28T02:29:07;100818.78;;;17.76;70.92
72548;BME280;60570;50.848;6.776;2022-10-28T02:32:11;100811.53;;;17.75;71.31
72548;BME280;60570;50.848;6.776;2022-10-28T02:33:27;100815.53;;;17.74;70.99
72548;BME280;60570;50.848;6.776;2022-10-28T02:34:32;100817.16;;;17.75;71.01
72548;BME280;60570;50.848;6.776;2022-10-28T02:35:55;100810.72;;;17.74;71.22
72548;BME280;60570;50.848;6.776;2022-10-28T02:36:56;100811.53;;;17.75;71.26
72548;BME280;60570;50.848;6.776;2022-10-28T02:38:02;100809.56;;;17.75;71.08
72548;BME280;60570;50.848;6.776;2022-10-28T02:39:05;100814.34;;;17.75;71.11
72548;BME280;60570;50.848;6.776;2022-10-28T02:40:11;100809.56;;;17.75;70.86
72548;BME280;60570;50.848;6.776;2022-10-28T02:41:20;100808.34;;;17.76;71.08
72548;BME280;60570;50.848;6.776;2022-10-28T02:42:32;100801.91;;;17.76;71.03
72548;BME280;60570;50.848;6.776;2022-10-28T02:43:35;100801.47;;;17.74;71.19
72548;BME280;60570;50.848;6.776;2022-10-28T02:44:40;100800.31;;;17.75;70.95
72548;BME280;60570;50.848;6.776;2022-10-28T02:45:46;100795.50;;;17.75;71.36
72548;BME280;60570;50.848;6.776;2022-10-28T02:46:49;100798.31;;;17.75;71.50
72548;BME280;60570;50.848;6.776;2022-10-28T02:47:54;100795.50;;;17.75;71.33
72548;BME280;60570;50.848;6.776;2022-10-28T02:49:00;100801.91;;;17.76;70.88
72548;BME280;60570;50.848;6.776;2022-10-28T02:50:06;100794.69;;;17.75;70.79
72548;BME280;60570;50.848;6.776;2022-10-28T02:51:15;100795.06;;;17.73;71.05
72548;BME280;60570;50.848;6.776;2022-10-28T02:52:18;100789.06;;;17.75;70.97
72548;BME280;60570;50.848;6.776;2022-10-28T02:53:29;100789.06;;;17.75;71.25
72548;BME280;60570;50.848;6.776;2022-10-28T02:54:41;100785.00;;;17.72;71.10
72548;BME280;60570;50.848;6.776;2022-10-28T02:55:43;100791.88;;;17.75;71.27
72548;BME280;60570;50.848;6.776;2022-10-28T02:57:19;100784.63;;;17.74;71.21
72548;BME280;60570;50.848;6.776;2022-10-28T02:58:21;100786.63;;;17.73;70.98
72548;BME280;60570;50.848;6.776;2022-10-28T02:59:24;100788.25;;;17.74;71.04
72548;BME280;60570;50.848;6.776;2022-10-28T03:00:25;100784.63;;;17.74;70.78
72548;BME280;60570;50.848;6.776;2022-10-28T03:01:25;100779.38;;;17.72;71.09
72548;BME280;60570;50.848;6.776;2022-10-28T03:02:27;100779.00;;;17.74;71.21
72548;BME280;60570;50.848;6.776;2022-10-28T03:03:27;100785.81;;;17.73;70.91
72548;BME280;60570;50.848;6.776;2022-10-28T03:04:28;100781.81;;;17.74;71.16
72548;BME280;60570;50.848;6.776;2022-10-28T03:05:28;100775.78;;;17.72;71.12
72548;BME280;60570;50.848;6.776;2022-10-28T03:06:29;100785.00;;;17.72;71.13
72548;BME280;60570;50.848;6.776;2022-10-28T03:07:29;100776.56;;;17.72;71.11
72548;BME280;60570;50.848;6.776;2022-10-28T03:08:30;100773.75;;;17.72;71.10
72548;BME280;60570;50.848;6.776;2022-10-28T03:09:30;100777.38;;;17.73;71.06
72548;BME280;60570;50.848;6.776;2022-10-28T03:10:32;100771.75;;;17.73;70.92
72548;BME280;60570;50.848;6.776;2022-10-28T03:11:32;100768.97;;;17.73;71.18
72548;BME280;60570;50.848;6.776;2022-10-28T03:12:33;100769.78;;;17.73;71.14
72548;BME280;60570;50.848;6.776;2022-10-28T03:13:33;100773.75;;;17.72;71.20
72548;BME280;60570;50.848;6.776;2022-10-28T03:14:34;100771.75;;;17.73;71.18
72548;BME280;60570;50.848;6.776;2022-10-28T03:15:34;100771.75;;;17.73;71.09
72548;BME280;60570;50.848;6.776;2022-10-28T03:16:35;100778.59;;;17.72;71.34
72548;BME280;60570;50.848;6.776;2022-10-28T03:17:35;100774.97;;;17.71;71.21
72548;BME280;60570;50.848;6.776;2022-10-28T03:18:35;100775.78;;;17.72;71.22
72548;BME280;60570;50.848;6.776;2022-10-28T03:19:36;100782.19;;;17.72;71.13
72548;BME280;60570;50.848;6.776;2022-10-28T03:20:36;100778.59;;;17.72;71.13
72548;BME280;60570;50.848;6.776;2022-10-28T03:21:37;100776.56;;;17.72;71.00
72548;BME280;60570;50.848;6.776;2022-10-28T03:22:37;100787.81;;;17.72;71.01
72548;BME280;60570;50.848;6.776;2022-10-28T03:23:37;100796.25;;;17.72;70.94
72548;BME280;60570;50.848;6.776;2022-10-28T03:24:38;100792.25;;;17.73;71.15
72548;BME280;60570;50.848;6.776;2022-10-28T03:25:38;100797.06;;;17.73;71.00
72548;BME280;60570;50.848;6.776;2022-10-28T03:26:39;100795.44;;;17.72;71.11
72548;BME280;60570;50.848;6.776;2022-10-28T03:27:39;100799.06;;;17.72;71.24
72548;BME280;60570;50.848;6.776;2022-10-28T03:28:40;100797.44;;;17.71;71.05
72548;BME280;60570;50.848;6.776;2022-10-28T03:29:41;100798.25;;;17.72;71.16
72548;BME280;60570;50.848;6.776;2022-10-28T03:30:41;100798.63;;;17.70;71.38
72548;BME280;60570;50.848;6.776;2022-10-28T03:31:41;100795.81;;;17.70;71.11
72548;BME280;60570;50.848;6.776;2022-10-28T03:32:42;100804.22;;;17.70;71.23
72548;BME280;60570;50.848;6.776;2022-10-28T03:33:42;100798.63;;;17.70;71.11
72548;BME280;60570;50.848;6.776;2022-10-28T03:34:42;100795.81;;;17.70;71.49
72548;BME280;60570;50.848;6.776;2022-10-28T03:35:43;100797.00;;;17.69;71.21
72548;BME280;60570;50.848;6.776;2022-10-28T03:36:44;100795.00;;;17.70;71.18
72548;BME280;60570;50.848;6.776;2022-10-28T03:37:44;100786.59;;;17.70;70.96
72548;BME280;60570;50.848;6.776;2022-10-28T03:38:44;100798.63;;;17.70;71.14
72548;BME280;60570;50.848;6.776;2022-10-28T03:39:45;100793.81;;;17.71;71.03
72548;BME280;60570;50.848;6.776;2022-10-28T03:40:49;100799.00;;;17.69;71.16
72548;BME280;60570;50.848;6.776;2022-10-28T03:41:50;100795.00;;;17.70;71.39
72548;BME280;60570;50.848;6.776;2022-10-28T03:42:50;100789.75;;;17.68;71.04
72548;BME280;60570;50.848;6.776;2022-10-28T03:43:51;100788.56;;;17.69;71.04
72548;BME280;60570;50.848;6.776;2022-10-28T03:44:51;100778.16;;;17.70;70.79
72548;BME280;60570;50.848;6.776;2022-10-28T03:45:51;100780.16;;;17.69;71.04
72548;BME280;60570;50.848;6.776;2022-10-28T03:46:52;100772.53;;;17.70;71.18
72548;BME280;60570;50.848;6.776;2022-10-28T03:47:52;100774.53;;;17.69;71.31
72548;BME280;60570;50.848;6.776;2022-10-28T03:48:53;100769.72;;;17.70;71.12
72548;BME280;60570;50.848;6.776;2022-10-28T03:49:53;100772.53;;;17.70;71.34
72548;BME280;60570;50.848;6.776;2022-10-28T03:50:53;100771.72;;;17.69;71.37
72548;BME280;60570;50.848;6.776;2022-10-28T03:51:54;100772.09;;;17.68;71.11
72548;BME280;60570;50.848;6.776;2022-10-28T03:52:54;100778.50;;;17.68;71.51
72548;BME280;60570;50.848;6.776;2022-10-28T03:53:55;100777.72;;;17.68;71.04
72548;BME280;60570;50.848;6.776;2022-10-28T03:54:55;100772.09;;;17.68;71.25
72548;BME280;60570;50.848;6.776;2022-10-28T03:55:57;100766.84;;;17.66;70.94
72548;BME280;60570;50.848;6.776;2022-10-28T03:56:58;100773.28;;;17.67;70.94
72548;BME280;60570;50.848;6.776;2022-10-28T03:58:01;100767.66;;;17.67;71.45
72548;BME280;60570;50.848;6.776;2022-10-28T03:59:02;100766.84;;;17.66;71.06
72548;BME280;60570;50.848;6.776;2022-10-28T04:00:03;100767.66;;;17.67;70.76
72548;BME280;60570;50.848;6.776;2022-10-28T04:01:04;100774.91;;;17.68;70.97
72548;BME280;60570;50.848;6.776;2022-10-28T04:02:04;100766.03;;;17.66;71.28
72548;BME280;60570;50.848;6.776;2022-10-28T04:03:05;100761.59;;;17.65;71.05
72548;BME280;60570;50.848;6.776;2022-10-28T04:04:05;100769.63;;;17.66;71.23
72548;BME280;60570;50.848;6.776;2022-10-28T04:05:06;100762.41;;;17.65;71.30
72548;BME280;60570;50.848;6.776;2022-10-28T04:06:07;100768.84;;;17.66;71.24
72548;BME280;60570;50.848;6.776;2022-10-28T04:07:09;100769.22;;;17.64;71.44
72548;BME280;60570;50.848;6.776;2022-10-28T04:08:09;100777.28;;;17.66;71.14
72548;BME280;60570;50.848;6.776;2022-10-28T04:09:10;100768.03;;;17.65;71.13
72548;BME280;60570;50.848;6.776;2022-10-28T04:10:11;100771.22;;;17.64;71.22
72548;BME280;60570;50.848;6.776;2022-10-28T04:11:11;100772.84;;;17.65;70.91
72548;BME280;60570;50.848;6.776;2022-10-28T04:12:12;100774.81;;;17.64;71.36
72548;BME280;60570;50.848;6.776;2022-10-28T04:13:12;100763.59;;;17.64;71.13
72548;BME280;60570;50.848;6.776;2022-10-28T04:14:13;100771.22;;;17.64;71.27
72548;BME280;60570;50.848;6.776;2022-10-28T04:15:13;100772.00;;;17.64;70.99
72548;BME280;60570;50.848;6.776;2022-10-28T04:16:14;100772.00;;;17.64;71.36
72548;BME280;60570;50.848;6.776;2022-10-28T04:17:14;100769.59;;;17.63;71.02
72548;BME280;60570;50.848;6.776;2022-10-28T04:18:14;100769.59;;;17.63;71.23
72548;BME280;60570;50.848;6.776;2022-10-28T04:19:15;100779.66;;;17.64;71.24
72548;BME280;60570;50.848;6.776;2022-10-28T04:20:16;100763.97;;;17.63;71.11
72548;BME280;60570;50.848;6.776;2022-10-28T04:21:16;100771.22;;;17.64;71.02
72548;BME280;60570;50.848;6.776;2022-10-28T04:22:17;100771.22;;;17.64;71.22
72548;BME280;60570;50.848;6.776;2022-10-28T04:23:17;100769.59;;;17.63;71.28
72548;BME280;60570;50.848;6.776;2022-10-28T04:24:18;100761.97;;;17.63;71.12
72548;BME280;60570;50.848;6.776;2022-10-28T04:25:20;100771.22;;;17.64;71.08
72548;BME280;60570;50.848;6.776;2022-10-28T04:26:21;100769.59;;;17.63;70.88
72548;BME280;60570;50.848;6.776;2022-10-28T04:27:21;100773.22;;;17.63;71.23
72548;BME280;60570;50.848;6.776;2022-10-28T04:28:21;100769.59;;;17.63;71.23
72548;BME280;60570;50.848;6.776;2022-10-28T04:29:25;100770.41;;;17.63;71.20
72548;BME280;60570;50.848;6.776;2022-10-28T04:30:25;100768.78;;;17.62;71.11
72548;BME280;60570;50.848;6.776;2022-10-28T04:31:25;100767.97;;;17.62;71.34
72548;BME280;60570;50.848;6.776;2022-10-28T04:32:26;100767.97;;;17.62;71.36
72548;BME280;60570;50.848;6.776;2022-10-28T04:33:27;100770.78;;;17.62;71.20
72548;BME280;60570;50.848;6.776;2022-10-28T04:34:27;100756.31;;;17.60;71.07
72548;BME280;60570;50.848;6.776;2022-10-28T04:35:28;100769.97;;;17.61;71.15
72548;BME280;60570;50.848;6.776;2022-10-28T04:36:28;100762.38;;;17.62;71.29
72548;BME280;60570;50.848;6.776;2022-10-28T04:37:29;100765.97;;;17.62;71.12
72548;BME280;60570;50.848;6.776;2022-10-28T04:38:29;100762.38;;;17.62;71.07
72548;BME280;60570;50.848;6.776;2022-10-28T04:39:29;100763.53;;;17.61;71.11
72548;BME280;60570;50.848;6.776;2022-10-28T04:40:30;100759.56;;;17.62;71.15
72548;BME280;60570;50.848;6.776;2022-10-28T04:41:30;100772.78;;;17.61;70.83
72548;BME280;60570;50.848;6.776;2022-10-28T04:42:30;100761.53;;;17.61;71.25
72548;BME280;60570;50.848;6.776;2022-10-28T04:43:31;100771.56;;;17.62;71.33
72548;BME280;60570;50.848;6.776;2022-10-28T04:44:31;100767.16;;;17.61;71.11
72548;BME280;60570;50.848;6.776;2022-10-28T04:45:32;100768.78;;;17.62;71.11
72548;BME280;60570;50.848;6.776;2022-10-28T04:46:32;100764.34;;;17.61;71.25
72548;BME280;60570;50.848;6.776;2022-10-28T04:47:33;100761.53;;;17.61;71.09
72548;BME280;60570;50.848;6.776;2022-10-28T04:48:33;100766.34;;;17.61;71.12
72548;BME280;60570;50.848;6.776;2022-10-28T04:49:34;100765.53;;;17.60;70.99
72548;BME280;60570;50.848;6.776;2022-10-28T04:50:34;100766.72;;;17.59;71.15
72548;BME280;60570;50.848;6.776;2022-10-28T04:51:35;100770.75;;;17.58;71.12
72548;BME280;60570;50.848;6.776;2022-10-28T04:52:35;100763.91;;;17.59;71.25
72548;BME280;60570;50.848;6.776;2022-10-28T04:53:36;100767.53;;;17.60;71.27
72548;BME280;60570;50.848;6.776;2022-10-28T04:54:36;100763.09;;;17.59;71.06
72548;BME280;60570;50.848;6.776;2022-10-28T04:55:37;100771.53;;;17.59;71.82
72548;BME280;60570;50.848;6.776;2022-10-28T04:56:37;100765.53;;;17.60;71.26
72548;BME280;60570;50.848;6.776;2022-10-28T04:57:37;100763.91;;;17.59;71.16
72548;BME280;60570;50.848;6.776;2022-10-28T04:58:38;100762.72;;;17.60;71.04
72548;BME280;60570;50.848;6.776;2022-10-28T04:59:39;100765.91;;;17.59;71.46
72548;BME280;60570;50.848;6.776;2022-10-28T05:00:39;100761.09;;;17.59;71.11
72548;BME280;60570;50.848;6.776;2022-10-28T05:01:40;100771.53;;;17.59;71.05
72548;BME280;60570;50.848;6.776;2022-10-28T05:02:40;100769.91;;;17.58;70.90
72548;BME280;60570;50.848;6.776;2022-10-28T05:03:41;100765.13;;;17.58;71.06
72548;BME280;60570;50.848;6.776;2022-10-28T05:04:41;100758.69;;;17.58;71.12
72548;BME280;60570;50.848;6.776;2022-10-28T05:05:42;100761.50;;;17.58;71.18
72548;BME280;60570;50.848;6.776;2022-10-28T05:06:42;100759.50;;;17.58;71.13
72548;BME280;60570;50.848;6.776;2022-10-28T05:07:43;100756.31;;;17.60;71.33
72548;BME280;60570;50.848;6.776;2022-10-28T05:08:44;100759.50;;;17.58;71.38
72548;BME280;60570;50.848;6.776;2022-10-28T05:09:44;100756.69;;;17.58;71.16
72548;BME280;60570;50.848;6.776;2022-10-28T05:10:45;100761.09;;;17.59;71.28
72548;BME280;60570;50.848;6.776;2022-10-28T05:11:49;100759.13;;;17.60;70.83
72548;BME280;60570;50.848;6.776;2022-10-28T05:12:49;100757.47;;;17.59;70.81
72548;BME280;60570;50.848;6.776;2022-10-28T05:13:50;100751.88;;;17.59;71.16
72548;BME280;60570;50.848;6.776;2022-10-28T05:14:52;100759.13;;;17.60;70.59
72548;BME280;60570;50.848;6.776;2022-10-28T05:15:52;100756.69;;;17.58;71.09
72548;BME280;60570;50.848;6.776;2022-10-28T05:16:53;100757.88;;;17.57;71.07
72548;BME280;60570;50.848;6.776;2022-10-28T05:17:53;100763.47;;;17.57;71.48
72548;BME280;60570;50.848;6.776;2022-10-28T05:18:54;100765.47;;;17.57;71.13
72548;BME280;60570;50.848;6.776;2022-10-28T05:19:54;100766.28;;;17.57;71.08
72548;BME280;60570;50.848;6.776;2022-10-28T05:20:55;100766.28;;;17.57;71.22
72548;BME280;60570;50.848;6.776;2022-10-28T05:21:56;100771.91;;;17.57;71.25
72548;BME280;60570;50.848;6.776;2022-10-28T05:22:56;100764.31;;;17.58;71.16
72548;BME280;60570;50.848;6.776;2022-10-28T05:23:57;100767.50;;;17.56;71.48
72548;BME280;60570;50.848;6.776;2022-10-28T05:24:57;100764.69;;;17.56;71.07
72548;BME280;60570;50.848;6.776;2022-10-28T05:25:57;100762.22;;;17.55;71.08
72548;BME280;60570;50.848;6.776;2022-10-28T05:26:58;100766.69;;;17.56;71.18
72548;BME280;60570;50.848;6.776;2022-10-28T05:28:00;100765.03;;;17.55;71.02
72548;BME280;60570;50.848;6.776;2022-10-28T05:29:00;100765.84;;;17.55;71.05
72548;BME280;60570;50.848;6.776;2022-10-28T05:30:01;100763.88;;;17.56;71.48
72548;BME280;60570;50.848;6.776;2022-10-28T05:31:01;100767.06;;;17.54;71.04
72548;BME280;60570;50.848;6.776;2022-10-28T05:32:01;100765.84;;;17.55;71.34
72548;BME280;60570;50.848;6.776;2022-10-28T05:33:02;100766.25;;;17.54;71.22
72548;BME280;60570;50.848;6.776;2022-10-28T05:34:03;100766.69;;;17.56;71.31
72548;BME280;60570;50.848;6.776;2022-10-28T05:35:04;100761.44;;;17.54;71.00
72548;BME280;60570;50.848;6.776;2022-10-28T05:36:05;100751.38;;;17.53;70.96
72548;BME280;60570;50.848;6.776;2022-10-28T05:37:05;100751.00;;;17.55;71.08
72548;BME280;60570;50.848;6.776;2022-10-28T05:38:06;100754.19;;;17.53;71.23
72548;BME280;60570;50.848;6.776;2022-10-28T05:39:06;100763.03;;;17.55;71.06
72548;BME280;60570;50.848;6.776;2022-10-28T05:40:07;100763.44;;;17.54;71.24
72548;BME280;60570;50.848;6.776;2022-10-28T05:41:08;100759.81;;;17.53;71.16
72548;BME280;60570;50.848;6.776;2022-10-28T05:42:08;100766.25;;;17.54;71.02
72548;BME280;60570;50.848;6.776;2022-10-28T05:43:09;100761.44;;;17.54;71.26
72548;BME280;60570;50.848;6.776;2022-10-28T05:44:10;100756.16;;;17.53;71.03
72548;BME280;60570;50.848;6.776;2022-10-28T05:45:11;100762.59;;;17.53;71.07
72548;BME280;60570;50.848;6.776;2022-10-28T05:46:11;100768.22;;;17.53;71.79
72548;BME280;60570;50.848;6.776;2022-10-28T05:47:12;100768.63;;;17.52;71.20
72548;BME280;60570;50.848;6.776;2022-10-28T05:48:12;100763.00;;;17.52;70.85
72548;BME280;60570;50.848;6.776;2022-10-28T05:49:12;100767.78;;;17.51;71.32
72548;BME280;60570;50.848;6.776;2022-10-28T05:50:16;100767.78;;;17.51;71.19
72548;BME280;60570;50.848;6.776;2022-10-28T05:51:17;100766.63;;;17.52;71.13
72548;BME280;60570;50.848;6.776;2022-10-28T05:52:17;100774.22;;;17.52;71.52
72548;BME280;60570;50.848;6.776;2022-10-28T05:53:17;100773.41;;;17.51;71.28
72548;BME280;60570;50.848;6.776;2022-10-28T05:54:18;100769.78;;;17.51;71.30
72548;BME280;60570;50.848;6.776;2022-10-28T05:55:19;100770.97;;;17.50;71.23
72548;BME280;60570;50.848;6.776;2022-10-28T05:56:20;100769.00;;;17.50;71.22
72548;BME280;60570;50.848;6.776;2022-10-28T05:57:21;100768.19;;;17.50;71.29
72548;BME280;60570;50.848;6.776;2022-10-28T05:58:21;100769.78;;;17.51;71.38
72548;BME280;60570;50.848;6.776;2022-10-28T05:59:22;100766.97;;;17.51;71.03
72548;BME280;60570;50.848;6.776;2022-10-28T06:00:23;100769.78;;;17.51;71.19
72548;BME280;60570;50.848;6.776;2022-10-28T06:01:24;100765.38;;;17.50;71.53
72548;BME280;60570;50.848;6.776;2022-10-28T06:02:24;100771.81;;;17.50;71.28
72548;BME280;60570;50.848;6.776;2022-10-28T06:03:25;100766.97;;;17.51;71.27
72548;BME280;60570;50.848;6.776;2022-10-28T06:04:25;100766.97;;;17.51;71.01